Time;durP1;ratioP1;P1;durP2;ratioP2;P2;SDS_P1;SDS_P2;PMS_P1;PMS_P2;Temp;Humidity;BMP_temperature;BMP_pressure;BME280_temperature;BME280_humidity;BME280_pressure;Samples;Min_cycle;Max_cycle;Signal;HPM_P1;HPM_P2
2022/03/01 00:00:17;;;;;;;12.80;8.37;;;;;;;-0.59;85.90;102619.56;2011029;29;20082;-61
2022/03/01 00:01:17;;;;;;;14.77;9.70;;;;;;;-0.58;86.37;102611.03;2011060;29;20044;-61
2022/03/01 00:02:18;;;;;;;14.87;9.37;;;;;;;-0.61;86.92;102605.81;2010914;29;20424;-61
2022/03/01 00:03:18;;;;;;;17.13;9.87;;;;;;;-0.66;87.26;102604.78;2010985;29;20093;-61
2022/03/01 00:04:19;;;;;;;16.35;10.18;;;;;;;-0.71;87.48;102608.91;2010944;29;20512;-61
2022/03/01 00:05:20;;;;;;;14.25;9.13;;;;;;;-0.75;87.59;102612.19;2011057;29;20041;-61
2022/03/01 00:06:20;;;;;;;14.60;8.67;;;;;;;-0.83;87.58;102604.22;2010952;29;20057;-60
2022/03/01 00:07:20;;;;;;;14.03;8.60;;;;;;;-0.91;87.63;102606.53;2010848;29;20025;-60
2022/03/01 00:08:21;;;;;;;14.90;7.53;;;;;;;-0.93;87.72;102610.72;2010961;29;20514;-60
2022/03/01 00:09:21;;;;;;;13.60;9.13;;;;;;;-0.88;87.92;102611.78;2010935;29;20036;-61
2022/03/01 00:10:21;;;;;;;13.63;8.03;;;;;;;-0.82;87.51;102608.53;2010947;29;20108;-61
2022/03/01 00:11:22;;;;;;;13.43;8.53;;;;;;;-0.78;87.10;102613.81;2010933;29;20026;-60
2022/03/01 00:12:22;;;;;;;16.50;8.95;;;;;;;-0.73;87.20;102610.53;2010293;29;20022;-59
2022/03/01 00:13:23;;;;;;;13.40;7.77;;;;;;;-0.64;86.79;102615.97;2010346;29;20032;-61
2022/03/01 00:14:23;;;;;;;12.70;8.07;;;;;;;-0.57;85.53;102617.94;2010954;29;20036;-60
2022/03/01 00:15:23;;;;;;;16.93;9.63;;;;;;;-0.55;85.32;102611.13;2010868;29;20073;-60
2022/03/01 00:16:23;;;;;;;12.67;8.30;;;;;;;-0.51;84.94;102612.13;2010900;29;20462;-60
2022/03/01 00:17:24;;;;;;;15.47;8.97;;;;;;;-0.53;84.32;102614.63;2010871;29;20105;-61
2022/03/01 00:18:24;;;;;;;14.43;8.40;;;;;;;-0.59;84.84;102614.41;2010889;29;20029;-61
2022/03/01 00:19:27;;;;;;;14.80;8.63;;;;;;;-0.65;85.00;102609.97;2010839;29;20033;-60
2022/03/01 00:20:27;;;;;;;15.75;8.35;;;;;;;-0.73;84.79;102613.09;2017942;29;20125;-61
2022/03/01 00:21:28;;;;;;;12.50;8.07;;;;;;;-0.82;85.21;102609.41;2017908;29;20039;-60
2022/03/01 00:22:29;;;;;;;12.85;8.68;;;;;;;-0.89;85.54;102609.16;2010703;29;20042;-60
2022/03/01 00:23:29;;;;;;;17.10;9.33;;;;;;;-0.91;86.00;102616.78;2010818;29;20029;-60
2022/03/01 00:24:30;;;;;;;14.03;9.40;;;;;;;-0.95;86.18;102614.94;2010864;29;20056;-60
2022/03/01 00:25:30;;;;;;;14.83;9.43;;;;;;;-0.99;85.86;102607.97;2010846;29;20100;-59
2022/03/01 00:26:30;;;;;;;10.37;6.47;;;;;;;-1.02;86.17;102612.97;2010806;29;20034;-59
2022/03/01 00:27:30;;;;;;;16.57;8.93;;;;;;;-1.06;86.21;102606.91;2017829;29;20047;-61
2022/03/01 00:28:31;;;;;;;14.83;8.20;;;;;;;-1.07;86.45;102608.56;2017959;29;20021;-61
2022/03/01 00:29:31;;;;;;;11.63;7.53;;;;;;;-1.09;86.50;102609.34;2010853;29;20097;-61
2022/03/01 00:30:32;;;;;;;12.07;8.33;;;;;;;-1.12;86.99;102612.69;2010748;29;20472;-61
2022/03/01 00:31:32;;;;;;;13.33;8.00;;;;;;;-1.13;87.18;102605.78;2010749;29;20427;-60
2022/03/01 00:32:32;;;;;;;13.83;8.93;;;;;;;-1.17;87.03;102606.50;2010825;29;20468;-61
2022/03/01 00:33:33;;;;;;;16.33;8.90;;;;;;;-1.22;87.38;102608.91;2010794;29;20025;-60
2022/03/01 00:34:33;;;;;;;15.00;9.73;;;;;;;-1.27;87.47;102607.00;2010847;29;20017;-61
2022/03/01 00:35:33;;;;;;;16.23;9.60;;;;;;;-1.32;87.76;102599.16;2010778;29;20059;-61
2022/03/01 00:36:36;;;;;;;15.63;9.07;;;;;;;-1.34;88.22;102609.34;2010781;29;20391;-61
2022/03/01 00:37:36;;;;;;;15.60;9.07;;;;;;;-1.37;88.26;102608.38;2010864;29;20053;-61
2022/03/01 00:38:37;;;;;;;18.17;9.03;;;;;;;-1.37;88.58;102605.81;2010832;29;20028;-60
2022/03/01 00:39:37;;;;;;;15.67;9.83;;;;;;;-1.39;88.86;102604.88;2011025;29;20047;-64
2022/03/01 00:40:37;;;;;;;13.53;8.27;;;;;;;-1.40;88.66;102606.59;2010967;29;20030;-60
2022/03/01 00:41:37;;;;;;;13.10;8.40;;;;;;;-1.39;88.50;102613.44;2010798;29;20473;-60
2022/03/01 00:42:38;;;;;;;16.03;10.23;;;;;;;-1.41;88.27;102620.19;2010835;29;20059;-60
2022/03/01 00:43:38;;;;;;;16.73;9.53;;;;;;;-1.42;88.22;102618.44;2010709;29;20036;-60
2022/03/01 00:44:39;;;;;;;15.27;8.13;;;;;;;-1.42;88.28;102618.44;2010654;29;20112;-60
2022/03/01 00:45:39;;;;;;;15.70;8.80;;;;;;;-1.39;88.34;102612.56;2010711;29;20025;-61
2022/03/01 00:46:39;;;;;;;16.40;9.17;;;;;;;-1.39;88.62;102607.44;2010672;29;20752;-60
2022/03/01 00:47:40;;;;;;;15.03;8.50;;;;;;;-1.40;88.68;102611.69;2010653;29;20025;-62
2022/03/01 00:48:40;;;;;;;13.87;9.33;;;;;;;-1.46;88.73;102616.59;2010569;29;20057;-60
2022/03/01 00:49:40;;;;;;;11.90;7.87;;;;;;;-1.48;88.60;102618.22;2010667;29;20022;-60
2022/03/01 00:50:41;;;;;;;15.80;8.20;;;;;;;-1.50;89.16;102615.63;2010661;29;20389;-60
2022/03/01 00:51:41;;;;;;;13.73;8.50;;;;;;;-1.46;89.36;102616.59;2010651;29;20069;-60
2022/03/01 00:52:41;;;;;;;11.37;7.37;;;;;;;-1.41;89.50;102617.63;2017618;29;20282;-60
2022/03/01 00:53:42;;;;;;;13.90;7.70;;;;;;;-1.40;89.15;102608.25;2009948;29;20030;-59
2022/03/01 00:54:42;;;;;;;16.33;8.03;;;;;;;-1.43;89.47;102616.72;2009996;29;20022;-59
2022/03/01 00:55:42;;;;;;;13.40;9.07;;;;;;;-1.47;88.96;102619.97;2010556;29;20507;-61
2022/03/01 00:56:42;;;;;;;18.33;9.27;;;;;;;-1.50;89.14;102617.28;2010639;29;20109;-60
2022/03/01 00:57:43;;;;;;;16.50;8.23;;;;;;;-1.52;89.31;102618.91;2010632;29;20057;-60
2022/03/01 00:58:43;;;;;;;17.50;9.47;;;;;;;-1.54;89.55;102612.88;2017693;29;20016;-59
2022/03/01 00:59:44;;;;;;;14.35;8.90;;;;;;;-1.57;89.73;102619.63;2017692;29;20056;-61
2022/03/01 01:00:44;;;;;;;11.33;8.10;;;;;;;-1.56;90.32;102610.25;2010564;29;20468;-60
2022/03/01 01:01:44;;;;;;;15.47;8.87;;;;;;;-1.58;89.82;102607.63;2010520;29;20060;-60
2022/03/01 01:02:44;;;;;;;12.40;8.60;;;;;;;-1.54;90.38;102607.75;2010559;29;20086;-61
2022/03/01 01:03:45;;;;;;;14.30;8.70;;;;;;;-1.53;90.06;102606.94;2010565;29;20029;-60
2022/03/01 01:04:45;;;;;;;9.50;6.43;;;;;;;-1.53;89.46;102604.38;2010564;29;20052;-60
2022/03/01 01:05:45;;;;;;;13.23;8.40;;;;;;;-1.57;89.81;102614.50;2017562;29;20021;-60
2022/03/01 01:06:46;;;;;;;13.47;8.40;;;;;;;-1.59;90.04;102616.16;2017575;29;20089;-61
2022/03/01 01:07:46;;;;;;;12.77;8.00;;;;;;;-1.57;90.19;102609.38;2010526;29;20068;-61
2022/03/01 01:08:46;;;;;;;13.63;9.00;;;;;;;-1.60;90.48;102614.41;2010485;29;20066;-61
2022/03/01 01:09:47;;;;;;;13.63;7.40;;;;;;;-1.61;90.28;102610.09;2010580;29;20036;-60
2022/03/01 01:10:48;;;;;;;14.87;8.67;;;;;;;-1.65;90.42;102613.34;2010580;29;20037;-61
2022/03/01 01:11:48;;;;;;;;;;;;;;;-1.66;90.50;102606.50;2010971;29;20032;-60
2022/03/01 01:12:49;;;;;;;13.02;7.85;;;;;;;-1.71;90.50;102605.47;2010574;29;20290;-61
2022/03/01 01:13:49;;;;;;;11.23;7.70;;;;;;;-1.77;90.18;102603.53;2010553;29;20021;-59
2022/03/01 01:14:50;;;;;;;14.95;8.20;;;;;;;-1.81;90.74;102599.97;2010516;29;20078;-60
2022/03/01 01:15:50;;;;;;;14.98;9.18;;;;;;;-1.83;91.74;102605.84;2010627;29;20068;-59
2022/03/01 01:16:51;;;;;;;12.87;7.80;;;;;;;-1.85;91.69;102603.22;2010546;29;20041;-59
2022/03/01 01:17:51;;;;;;;13.18;8.07;;;;;;;-1.82;92.17;102610.16;2009851;29;20298;-60
2022/03/01 01:18:52;;;;;;;11.67;7.70;;;;;;;-1.82;92.95;102605.91;2010045;29;20080;-59
2022/03/01 01:19:52;;;;;;;12.80;8.37;;;;;;;-1.78;92.45;102611.16;2010532;29;20400;-60
2022/03/01 01:20:53;;;;;;;13.55;8.32;;;;;;;-1.73;92.00;102612.19;2010491;29;20029;-59
2022/03/01 01:23:12;;;;;;;13.35;8.07;;;;;;;-1.71;91.44;102610.56;2010175;29;20519;-59
2022/03/01 01:24:13;;;;;;;14.37;8.37;;;;;;;-1.72;91.38;102608.81;2010579;29;20033;-59
2022/03/01 01:25:22;;;;;;;14.10;8.37;;;;;;;-1.75;90.77;102607.00;2010502;29;20471;-59
2022/03/01 01:26:22;;;;;;;12.98;8.60;;;;;;;-1.77;91.09;102606.09;2010517;29;20120;-59
2022/03/01 01:27:22;;;;;;;13.60;8.23;;;;;;;-1.77;91.02;102605.22;2010510;29;20133;-60
2022/03/01 01:28:23;;;;;;;17.23;8.80;;;;;;;-1.79;91.54;102611.97;2010575;29;20519;-60
2022/03/01 01:29:23;;;;;;;11.80;7.17;;;;;;;-1.82;91.38;102612.72;2010548;29;20484;-59
2022/03/01 01:30:26;;;;;;;15.13;7.70;;;;;;;-1.85;91.60;102602.38;2010511;29;20060;-60
2022/03/01 01:31:27;;;;;;;14.10;8.23;;;;;;;-1.86;91.70;102606.63;2010468;29;20026;-59
2022/03/01 01:32:27;;;;;;;13.17;8.40;;;;;;;-1.85;92.08;102608.34;2010459;29;20021;-58
2022/03/01 01:33:27;;;;;;;12.47;7.13;;;;;;;-1.83;91.89;102606.75;2010531;29;20105;-60
2022/03/01 01:34:28;;;;;;;15.00;8.50;;;;;;;-1.82;92.14;102603.34;2010563;29;20154;-60
2022/03/01 01:35:30;;;;;;;11.87;7.40;;;;;;;-1.84;91.82;102604.97;2010383;29;20033;-61
2022/03/01 01:36:30;;;;;;;16.08;9.25;;;;;;;-1.84;91.92;102599.00;2010505;29;20081;-61
2022/03/01 01:37:31;;;;;;;13.83;7.57;;;;;;;-1.80;92.41;102608.53;2010445;29;20026;-60
2022/03/01 01:38:31;;;;;;;16.07;8.93;;;;;;;-1.77;92.56;102608.66;2010510;29;20029;-61
2022/03/01 01:39:31;;;;;;;13.13;7.30;;;;;;;-1.75;91.87;102611.28;2010470;29;20391;-61
2022/03/01 01:40:33;;;;;;;11.70;7.47;;;;;;;-1.78;92.12;102608.59;2010454;29;20391;-60
2022/03/01 01:41:33;;;;;;;12.05;7.50;;;;;;;-1.79;92.21;102607.72;2010524;29;20115;-61
2022/03/01 01:42:34;;;;;;;15.70;9.30;;;;;;;-1.82;92.01;102608.47;2010446;29;20498;-61
2022/03/01 01:43:34;;;;;;;13.35;8.10;;;;;;;-1.82;92.42;102611.03;2010460;29;20542;-61
2022/03/01 01:44:34;;;;;;;12.93;7.90;;;;;;;-1.85;92.36;102608.34;2010406;29;20024;-61
2022/03/01 01:45:35;;;;;;;12.60;7.77;;;;;;;-1.87;92.20;102604.88;2010482;29;20049;-60
2022/03/01 01:46:35;;;;;;;13.52;8.63;;;;;;;-1.91;92.80;102608.13;2010481;29;20360;-60
2022/03/01 01:47:36;;;;;;;15.73;8.07;;;;;;;-1.89;92.56;102611.63;2010439;29;20029;-60
2022/03/01 01:48:36;;;;;;;12.50;7.37;;;;;;;-1.89;92.77;102605.63;2010304;29;20046;-61
2022/03/01 01:49:36;;;;;;;12.83;8.07;;;;;;;-1.88;93.41;102603.09;2010440;29;20033;-61
2022/03/01 01:50:36;;;;;;;17.87;8.63;;;;;;;-1.87;92.90;102604.88;2010440;29;20100;-61
2022/03/01 01:51:37;;;;;;;15.73;10.07;;;;;;;-1.82;92.84;102605.91;2010445;29;20480;-60
2022/03/01 01:52:37;;;;;;;16.23;8.57;;;;;;;-1.82;92.50;102602.47;2010490;29;20129;-60
2022/03/01 01:53:37;;;;;;;13.63;8.17;;;;;;;-1.79;92.85;102601.75;2009835;29;20033;-60
2022/03/01 01:54:38;;;;;;;13.67;8.77;;;;;;;-1.79;92.82;102606.84;2009825;29;20061;-60
2022/03/01 01:55:38;;;;;;;11.27;8.60;;;;;;;-1.78;93.12;102603.47;2010471;29;20476;-60
2022/03/01 01:56:38;;;;;;;14.73;7.87;;;;;;;-1.78;92.51;102599.22;2017390;29;20028;-60
2022/03/01 01:57:39;;;;;;;13.17;8.03;;;;;;;-1.78;92.15;102599.22;2017509;29;20025;-61
2022/03/01 01:58:39;;;;;;;14.17;8.87;;;;;;;-1.78;92.01;102595.78;2010417;29;20036;-60
2022/03/01 01:59:39;;;;;;;11.77;8.77;;;;;;;-1.78;91.51;102599.22;2010510;29;20030;-60
2022/03/01 02:00:40;;;;;;;12.13;8.13;;;;;;;-1.79;91.74;102601.75;2010641;29;20025;-59
2022/03/01 02:01:41;;;;;;;12.93;8.40;;;;;;;-1.78;91.27;102600.91;2011884;29;20057;-59
2022/03/01 02:02:41;;;;;;;12.80;7.63;;;;;;;-1.74;91.68;102597.66;2011141;29;20027;-60
2022/03/01 02:03:41;;;;;;;15.23;7.60;;;;;;;-1.71;91.54;102600.34;2011316;29;20030;-60
2022/03/01 02:04:42;;;;;;;11.80;7.93;;;;;;;-1.69;91.68;102598.69;2011861;29;20022;-60
2022/03/01 02:05:42;;;;;;;11.00;7.57;;;;;;;-1.69;91.66;102596.13;2011987;29;20029;-59
2022/03/01 02:06:50;;;;;;;13.83;8.90;;;;;;;-1.67;91.66;102597.06;2011821;29;20028;-60
2022/03/01 02:07:51;;;;;;;14.05;8.45;;;;;;;-1.67;91.66;102599.63;2011837;29;20056;-60
2022/03/01 02:08:51;;;;;;;11.90;8.23;;;;;;;-1.68;91.52;102600.44;2011740;29;20026;-59
2022/03/01 02:09:51;;;;;;;14.57;7.80;;;;;;;-1.69;91.30;102593.56;2011812;29;20029;-60
2022/03/01 02:10:51;;;;;;;11.50;6.63;;;;;;;-1.70;92.12;102597.84;2011881;29;20029;-60
2022/03/01 02:11:52;;;;;;;14.20;7.83;;;;;;;-1.70;92.14;102591.84;2011794;29;20037;-60
2022/03/01 02:12:52;;;;;;;13.00;8.33;;;;;;;-1.66;92.24;102590.25;2011781;29;20060;-60
2022/03/01 02:13:52;;;;;;;13.40;8.63;;;;;;;-1.66;92.10;102598.81;2011803;29;20037;-60
2022/03/01 02:14:52;;;;;;;14.13;7.93;;;;;;;-1.65;91.82;102597.97;2011764;29;20030;-60
2022/03/01 02:15:54;;;;;;;12.17;7.57;;;;;;;-1.62;91.68;102600.66;2011777;29;20108;-59
2022/03/01 02:16:55;;;;;;;14.02;8.50;;;;;;;-1.63;91.93;102598.03;2011798;29;20029;-59
2022/03/01 02:17:55;;;;;;;14.18;9.15;;;;;;;-1.63;91.79;102593.81;2011804;29;20062;-59
2022/03/01 02:18:56;;;;;;;14.27;8.43;;;;;;;-1.60;91.54;102596.50;2011774;29;20087;-60
2022/03/01 02:19:56;;;;;;;14.40;8.75;;;;;;;-1.58;91.47;102592.28;2018810;29;20168;-59
2022/03/01 02:20:56;;;;;;;11.77;7.90;;;;;;;-1.58;91.50;102599.97;2018833;29;20104;-59
2022/03/01 02:21:57;;;;;;;12.37;8.30;;;;;;;-1.58;91.08;102592.28;2011702;29;20108;-60
2022/03/01 02:22:58;;;;;;;14.95;9.15;;;;;;;-1.54;91.53;102589.84;2011720;29;20484;-59
2022/03/01 02:23:58;;;;;;;14.43;8.40;;;;;;;-1.55;91.83;102586.38;2011721;29;20025;-60
2022/03/01 02:24:58;;;;;;;12.00;7.97;;;;;;;-1.58;91.39;102594.84;2011726;29;20488;-60
2022/03/01 02:25:58;;;;;;;13.90;9.30;;;;;;;-1.60;91.74;102587.91;2011682;29;20403;-59
2022/03/01 02:27:02;;;;;;;14.43;7.43;;;;;;;-1.62;91.85;102595.53;2011636;29;20109;-61
2022/03/01 02:28:03;;;;;;;11.95;7.70;;;;;;;-1.61;91.90;102596.44;2011692;29;20065;-60
2022/03/01 02:29:03;;;;;;;11.35;7.38;;;;;;;-1.62;92.32;102595.53;2011689;29;20472;-60
2022/03/01 02:30:06;;;;;;;15.30;8.73;;;;;;;-1.62;92.08;102592.97;2011668;29;20025;-60
2022/03/01 02:31:07;;;;;;;14.55;8.77;;;;;;;-1.60;91.96;102588.81;2011614;29;20436;-60
2022/03/01 02:32:08;;;;;;;11.13;7.47;;;;;;;-1.60;92.08;102588.81;2011715;29;20025;-60
2022/03/01 02:33:09;;;;;;;12.98;7.55;;;;;;;-1.59;92.07;102592.22;2011478;29;20120;-60
2022/03/01 02:34:09;;;;;;;13.80;7.40;;;;;;;-1.56;91.82;102595.78;2011608;29;20033;-60
2022/03/01 02:35:11;;;;;;;12.57;8.10;;;;;;;-1.53;91.49;102589.00;2018630;29;20061;-59
2022/03/01 02:36:12;;;;;;;13.77;8.73;;;;;;;-1.52;91.59;102590.75;2018431;29;20052;-60
2022/03/01 02:37:12;;;;;;;12.63;8.25;;;;;;;-1.52;91.31;102585.63;2011603;29;20032;-61
2022/03/01 02:38:13;;;;;;;14.40;8.40;;;;;;;-1.53;90.59;102600.13;2011602;29;20029;-60
2022/03/01 02:39:14;;;;;;;12.43;7.87;;;;;;;-1.54;91.26;102592.41;2011595;29;20044;-60
2022/03/01 02:40:15;;;;;;;12.65;8.50;;;;;;;-1.53;90.73;102597.56;2011588;29;20033;-60
2022/03/01 02:41:15;;;;;;;15.98;9.57;;;;;;;-1.50;90.82;102584.00;2010955;29;20089;-60
2022/03/01 02:42:16;;;;;;;14.83;8.53;;;;;;;-1.49;90.87;102590.88;2010910;29;20129;-60
2022/03/01 02:43:16;;;;;;;14.07;8.43;;;;;;;-1.49;90.45;102590.88;2011553;29;20029;-60
2022/03/01 02:44:17;;;;;;;13.38;9.05;;;;;;;-1.46;91.49;102590.97;2011599;29;20025;-60
2022/03/01 02:45:18;;;;;;;14.32;8.57;;;;;;;-1.43;91.33;102591.94;2011410;29;20064;-61
2022/03/01 02:46:18;;;;;;;9.80;7.90;;;;;;;-1.44;91.18;102589.31;2011455;29;20030;-59
2022/03/01 02:47:19;;;;;;;13.63;8.50;;;;;;;-1.45;91.41;102587.59;2011505;29;20077;-60
2022/03/01 02:48:19;;;;;;;13.33;8.83;;;;;;;-1.47;91.72;102589.25;2011365;29;20511;-60
2022/03/01 02:49:19;;;;;;;13.97;9.40;;;;;;;-1.45;92.77;102582.47;2011568;29;20028;-59
2022/03/01 02:50:20;;;;;;;12.00;7.87;;;;;;;-1.44;92.82;102589.31;2011497;29;20112;-61
2022/03/01 02:51:20;;;;;;;11.90;8.00;;;;;;;-1.43;92.74;102579.13;2011433;29;20039;-61
2022/03/01 02:52:21;;;;;;;14.77;8.40;;;;;;;-1.45;92.75;102582.47;2011428;29;20278;-59
2022/03/01 02:53:21;;;;;;;9.77;6.33;;;;;;;-1.44;93.00;102576.53;2011442;29;20030;-60
2022/03/01 02:54:21;;;;;;;11.37;8.27;;;;;;;-1.45;93.29;102577.34;2011417;29;20025;-60
2022/03/01 02:55:22;;;;;;;15.40;8.87;;;;;;;-1.45;92.77;102582.47;2011406;29;20099;-60
2022/03/01 02:56:22;;;;;;;12.13;7.32;;;;;;;-1.43;92.79;102576.56;2011480;29;20498;-60
2022/03/01 02:57:24;;;;;;;15.00;9.00;;;;;;;-1.39;92.89;102571.56;2010553;29;20408;-60
2022/03/01 02:58:24;;;;;;;12.85;8.48;;;;;;;-1.33;92.16;102576.94;2010773;29;20057;-60
2022/03/01 02:59:25;;;;;;;13.60;8.43;;;;;;;-1.22;91.54;102574.72;2011380;29;20093;-60
2022/03/01 03:00:25;;;;;;;16.30;8.98;;;;;;;-1.15;90.94;102575.81;2011411;29;20093;-59
2022/03/01 03:01:27;;;;;;;13.33;8.50;;;;;;;-1.12;90.89;102576.81;2011387;29;20025;-60
2022/03/01 03:02:28;;;;;;;13.30;7.97;;;;;;;-1.09;90.82;102566.63;2011264;29;20026;-61
2022/03/01 03:03:28;;;;;;;10.90;7.17;;;;;;;-1.08;90.80;102575.19;2011472;29;20029;-60
2022/03/01 03:04:29;;;;;;;10.93;7.57;;;;;;;-1.07;90.91;102569.25;2011428;29;20053;-61
2022/03/01 03:05:30;;;;;;;13.65;9.05;;;;;;;-1.08;91.45;102565.84;2011287;29;20444;-61
2022/03/01 03:06:30;;;;;;;12.20;7.80;;;;;;;-1.09;90.99;102570.91;2011374;29;20034;-61
2022/03/01 03:07:31;;;;;;;14.00;8.90;;;;;;;-1.02;90.64;102575.41;2010664;29;20032;-61
2022/03/01 03:08:32;;;;;;;14.30;9.03;;;;;;;-0.96;89.97;102561.94;2010790;29;20029;-61
2022/03/01 03:09:32;;;;;;;14.70;9.57;;;;;;;-0.87;89.14;102566.47;2011301;29;20022;-60
2022/03/01 03:10:33;;;;;;;11.60;7.97;;;;;;;-0.83;88.85;102569.22;2010589;29;20021;-60
2022/03/01 03:11:33;;;;;;;15.55;8.77;;;;;;;-0.81;88.52;102567.59;2010696;29;20049;-60
2022/03/01 03:12:34;;;;;;;12.03;8.50;;;;;;;-0.79;88.98;102570.16;2017226;29;20472;-60
2022/03/01 03:13:34;;;;;;;12.98;7.93;;;;;;;-0.78;88.65;102572.78;2018408;29;20444;-60
2022/03/01 03:14:35;;;;;;;12.47;8.57;;;;;;;-0.74;87.95;102572.88;2011403;29;20476;-62
2022/03/01 03:15:37;;;;;;;13.95;8.77;;;;;;;-0.72;87.19;102571.25;2011273;29;20052;-60
2022/03/01 03:16:38;;;;;;;13.52;8.43;;;;;;;-0.70;86.96;102569.59;2011265;29;20077;-60
2022/03/01 03:17:38;;;;;;;14.13;8.97;;;;;;;-0.70;87.37;102570.47;2011309;29;20479;-60
2022/03/01 03:18:38;;;;;;;13.53;8.73;;;;;;;-0.70;87.41;102569.59;2011300;29;20025;-60
2022/03/01 03:19:38;;;;;;;14.07;9.27;;;;;;;-0.70;87.34;102564.47;2011313;29;20061;-59
2022/03/01 03:20:39;;;;;;;15.63;9.17;;;;;;;-0.70;87.58;102561.91;2011339;29;20128;-59
2022/03/01 03:21:39;;;;;;;16.00;9.43;;;;;;;-0.70;88.22;102564.47;2011332;29;20387;-61
2022/03/01 03:22:40;;;;;;;12.23;9.03;;;;;;;-0.74;88.29;102568.66;2011163;29;20102;-60
2022/03/01 03:23:40;;;;;;;12.93;9.10;;;;;;;-0.74;88.52;102572.88;2011322;29;20040;-61
2022/03/01 03:24:41;;;;;;;12.60;8.50;;;;;;;-0.75;89.04;102571.16;2011314;29;20491;-60
2022/03/01 03:25:41;;;;;;;14.97;8.40;;;;;;;-0.74;89.14;102570.31;2011282;29;20118;-60
2022/03/01 03:26:41;;;;;;;16.67;9.43;;;;;;;-0.75;89.38;102566.03;2011255;29;20033;-61
2022/03/01 03:27:42;;;;;;;15.27;8.98;;;;;;;-0.73;89.31;102572.06;2010603;29;20069;-61
2022/03/01 03:28:42;;;;;;;13.87;7.90;;;;;;;-0.71;88.73;102567.88;2010716;29;20034;-61
2022/03/01 03:29:42;;;;;;;17.13;8.73;;;;;;;-0.70;88.25;102569.59;2011284;29;20361;-61
2022/03/01 03:30:43;;;;;;;14.60;8.37;;;;;;;-0.69;88.02;102573.91;2011330;29;20047;-61
2022/03/01 03:31:43;;;;;;;12.88;8.73;;;;;;;-0.69;88.33;102571.34;2010583;29;20045;-60
2022/03/01 03:32:43;;;;;;;14.87;8.13;;;;;;;-0.69;87.92;102571.34;2010678;29;20017;-60
2022/03/01 03:33:44;;;;;;;14.47;8.47;;;;;;;-0.70;87.89;102567.91;2018236;29;20047;-60
2022/03/01 03:34:44;;;;;;;13.13;7.93;;;;;;;-0.71;88.46;102567.88;2018238;29;20153;-60
2022/03/01 03:35:44;;;;;;;17.73;9.20;;;;;;;-0.74;88.61;102567.75;2011229;29;20125;-59
2022/03/01 03:36:44;;;;;;;12.57;7.90;;;;;;;-0.78;88.06;102565.09;2011205;29;20021;-59
2022/03/01 03:37:45;;;;;;;12.17;8.07;;;;;;;-0.78;88.10;102572.78;2011205;29;20499;-60
2022/03/01 03:38:45;;;;;;;13.57;8.90;;;;;;;-0.76;87.82;102569.41;2011167;29;20479;-59
2022/03/01 03:39:45;;;;;;;12.83;7.90;;;;;;;-0.76;87.61;102565.16;2010496;29;20061;-60
2022/03/01 03:40:46;;;;;;;12.80;8.30;;;;;;;-0.74;87.67;102572.88;2010520;29;20141;-59
2022/03/01 03:41:46;;;;;;;14.23;8.00;;;;;;;-0.74;87.61;102565.19;2018161;29;20020;-60
2022/03/01 03:42:46;;;;;;;12.53;8.13;;;;;;;-0.74;87.60;102567.75;2011136;29;20056;-59
2022/03/01 03:43:47;;;;;;;12.88;7.95;;;;;;;-0.75;87.49;102572.03;2011136;29;20021;-60
2022/03/01 03:44:47;;;;;;;15.30;8.70;;;;;;;-0.75;87.50;102566.03;2018149;29;20455;-59
2022/03/01 03:45:47;;;;;;;13.47;8.87;;;;;;;-0.75;87.47;102566.03;2018217;29;20476;-59
2022/03/01 03:46:48;;;;;;;11.33;7.53;;;;;;;-0.75;87.30;102571.16;2011056;29;20051;-59
2022/03/01 03:47:49;;;;;;;15.53;8.50;;;;;;;-0.76;87.40;102564.28;2011106;29;20452;-59
2022/03/01 03:48:49;;;;;;;13.60;8.02;;;;;;;-0.76;87.89;102564.28;2010921;29;20058;-59
2022/03/01 03:49:49;;;;;;;11.30;7.73;;;;;;;-0.75;87.85;102566.03;2011064;29;20053;-60
2022/03/01 03:50:49;;;;;;;12.40;7.70;;;;;;;-0.75;88.19;102563.47;2011065;29;20033;-60
2022/03/01 03:51:50;;;;;;;12.27;7.60;;;;;;;-0.75;88.08;102571.16;2011035;29;20033;-60
2022/03/01 03:52:50;;;;;;;13.40;8.03;;;;;;;-0.75;88.34;102569.47;2011027;29;20049;-60
2022/03/01 03:53:50;;;;;;;11.77;8.33;;;;;;;-0.74;88.28;102572.88;2011030;29;20476;-60
2022/03/01 03:54:51;;;;;;;16.00;8.63;;;;;;;-0.73;88.26;102564.38;2011029;29;20059;-60
2022/03/01 03:55:51;;;;;;;14.63;8.43;;;;;;;-0.70;88.12;102567.03;2011038;29;20455;-60
2022/03/01 03:56:51;;;;;;;13.47;7.93;;;;;;;-0.69;87.76;102571.34;2011087;29;20108;-60
2022/03/01 03:57:52;;;;;;;11.80;7.73;;;;;;;-0.69;88.08;102568.78;2010391;29;20400;-60
2022/03/01 03:58:55;;;;;;;12.80;7.73;;;;;;;-0.71;88.88;102562.75;2010333;29;20141;-60
2022/03/01 03:59:55;;;;;;;13.90;8.90;;;;;;;-0.72;88.46;102561.00;2010483;29;20034;-59
2022/03/01 04:00:56;;;;;;;13.97;8.30;;;;;;;-0.73;89.05;102569.50;2011153;29;20495;-60
2022/03/01 04:01:56;;;;;;;13.80;9.38;;;;;;;-0.74;89.14;102567.75;2010962;29;20061;-59
2022/03/01 04:02:57;;;;;;;13.47;8.20;;;;;;;-0.73;89.66;102564.38;2011064;29;20048;-60
2022/03/01 04:03:59;;;;;;;13.23;8.45;;;;;;;-0.75;89.62;102569.47;2011020;29;20395;-60
2022/03/01 04:04:59;;;;;;;12.00;7.50;;;;;;;-0.77;90.16;102563.41;2010964;29;20025;-60
2022/03/01 04:06:00;;;;;;;14.33;7.83;;;;;;;-0.78;90.22;102565.09;2017993;29;20064;-60
2022/03/01 04:07:00;;;;;;;13.83;8.47;;;;;;;-0.73;90.08;102566.94;2018095;29;20037;-59
2022/03/01 04:08:01;;;;;;;15.03;9.17;;;;;;;-0.73;90.04;102566.94;2011058;29;20293;-59
2022/03/01 04:09:03;;;;;;;15.33;9.23;;;;;;;-0.73;89.71;102570.38;2010967;29;20484;-60
2022/03/01 04:10:03;;;;;;;11.85;7.90;;;;;;;-0.72;89.06;102561.00;2010977;29;20064;-60
2022/03/01 04:11:05;;;;;;;13.07;9.25;;;;;;;-0.68;89.19;102565.41;2010907;29;20396;-59
2022/03/01 04:12:06;;;;;;;11.10;7.72;;;;;;;-0.66;88.95;102564.63;2010959;29;20116;-60
2022/03/01 04:13:06;;;;;;;13.70;8.73;;;;;;;-0.59;88.80;102563.13;2017921;29;20436;-59
2022/03/01 04:14:06;;;;;;;17.17;8.83;;;;;;;-0.56;88.27;102570.94;2010334;29;20174;-60
2022/03/01 04:15:08;;;;;;;14.00;8.83;;;;;;;-0.54;88.19;102571.81;2010431;29;20029;-60
2022/03/01 04:16:09;;;;;;;15.43;8.95;;;;;;;-0.54;87.54;102566.69;2010899;29;20559;-60
2022/03/01 04:17:10;;;;;;;13.07;8.83;;;;;;;-0.53;87.75;102568.47;2017898;29;20059;-59
2022/03/01 04:18:10;;;;;;;13.32;8.60;;;;;;;-0.50;87.93;102567.69;2017952;29;20104;-59
2022/03/01 04:19:11;;;;;;;13.47;8.00;;;;;;;-0.48;88.57;102570.31;2010928;29;20361;-59
2022/03/01 04:20:11;;;;;;;11.77;7.90;;;;;;;-0.48;88.47;102575.44;2010781;29;20523;-60
2022/03/01 04:21:13;;;;;;;12.90;7.97;;;;;;;-0.53;88.67;102568.47;2010831;29;20033;-61
2022/03/01 04:22:13;;;;;;;13.55;9.02;;;;;;;-0.56;88.88;102573.50;2010781;29;20025;-60
2022/03/01 04:23:13;;;;;;;12.23;7.50;;;;;;;-0.55;89.05;102562.41;2010803;29;20369;-60
2022/03/01 04:24:13;;;;;;;13.13;7.73;;;;;;;-0.53;89.02;102571.03;2010594;29;20038;-59
2022/03/01 04:25:14;;;;;;;15.40;7.67;;;;;;;-0.50;88.68;102566.81;2010892;29;20064;-60
2022/03/01 04:26:14;;;;;;;14.33;9.00;;;;;;;-0.49;88.45;102569.41;2010810;29;20547;-60
2022/03/01 04:27:17;;;;;;;14.73;9.35;;;;;;;-0.45;88.17;102571.25;2010776;29;20540;-60
2022/03/01 04:28:17;;;;;;;13.85;8.45;;;;;;;-0.45;87.77;102565.28;2010765;29;20040;-59
2022/03/01 04:29:18;;;;;;;12.60;7.55;;;;;;;-0.42;88.10;102575.59;2010899;29;20109;-60
2022/03/01 04:30:18;;;;;;;11.60;8.10;;;;;;;-0.40;87.69;102573.97;2010777;29;20033;-60
2022/03/01 04:31:18;;;;;;;13.83;9.20;;;;;;;-0.38;87.09;102577.44;2010762;29;20040;-59
2022/03/01 04:32:19;;;;;;;16.87;8.23;;;;;;;-0.32;86.42;102575.09;2010799;29;20503;-60
2022/03/01 04:33:19;;;;;;;12.77;8.70;;;;;;;-0.23;85.89;102565.94;2010700;29;20058;-61
2022/03/01 04:34:19;;;;;;;13.00;8.37;;;;;;;-0.19;85.91;102572.88;2010778;29;20048;-60
2022/03/01 04:35:19;;;;;;;13.13;8.10;;;;;;;-0.17;85.67;102572.09;2010636;29;20057;-60
2022/03/01 04:36:20;;;;;;;14.80;8.10;;;;;;;-0.16;85.98;102562.72;2010751;29;20037;-60
2022/03/01 04:37:20;;;;;;;12.87;7.20;;;;;;;-0.15;85.85;102569.59;2010710;29;20034;-60
2022/03/01 04:38:20;;;;;;;12.77;8.57;;;;;;;-0.16;86.05;102573.00;2010677;29;20025;-60
2022/03/01 04:39:21;;;;;;;12.83;7.97;;;;;;;-0.16;86.40;102578.13;2010807;29;20030;-60